createdAt,value
2024-02-05T00:00:03.189Z,100799.81
2024-02-05T00:01:05.281Z,100802.38
2024-02-05T00:02:07.365Z,100805.41
2024-02-05T00:03:10.447Z,100792.09
2024-02-05T00:04:16.763Z,100788.84
2024-02-05T00:05:18.930Z,100784.56
2024-02-05T00:06:20.904Z,100789.56
2024-02-05T00:07:23.236Z,100786.63
2024-02-05T00:08:25.302Z,100779.97
2024-02-05T00:09:27.257Z,100777.41
2024-02-05T00:10:29.245Z,100785.28
2024-02-05T00:11:31.192Z,100793.13
2024-02-05T00:12:33.389Z,100795.66
2024-02-05T00:13:35.390Z,100789.53
2024-02-05T00:14:37.385Z,100783.00
2024-02-05T00:15:39.403Z,100790.19
2024-02-05T00:16:41.551Z,100789.72
2024-02-05T00:17:46.157Z,100783.38
2024-02-05T00:18:48.189Z,100782.66
2024-02-05T00:19:50.247Z,100783.97
2024-02-05T00:20:53.132Z,100775.94
2024-02-05T00:21:55.170Z,100777.47
2024-02-05T00:22:57.281Z,100768.41
2024-02-05T00:23:59.275Z,100766.69
2024-02-05T00:25:02.407Z,100763.28
2024-02-05T00:26:04.504Z,100767.06
2024-02-05T00:27:06.549Z,100775.84
2024-02-05T00:28:09.108Z,100770.72
2024-02-05T00:29:11.217Z,100767.25
2024-02-05T00:30:14.355Z,100765.00
2024-02-05T00:31:17.309Z,100765.84
2024-02-05T00:32:19.281Z,100766.03
2024-02-05T00:33:21.445Z,100772.00
2024-02-05T00:34:23.622Z,100775.56
2024-02-05T00:35:25.811Z,100780.03
2024-02-05T00:36:28.779Z,100785.50
2024-02-05T00:37:30.784Z,100777.09
2024-02-05T00:38:32.843Z,100776.91
2024-02-05T00:39:34.945Z,100783.25
2024-02-05T00:40:36.954Z,100790.22
2024-02-05T00:41:38.916Z,100793.63
2024-02-05T00:42:40.976Z,100794.50
2024-02-05T00:43:42.963Z,100795.16
2024-02-05T00:44:44.971Z,100782.50
2024-02-05T00:45:47.063Z,100780.63
2024-02-05T00:46:50.164Z,100782.31
2024-02-05T00:47:52.266Z,100786.94
2024-02-05T00:48:55.313Z,100795.34
2024-02-05T00:49:57.980Z,100797.72
2024-02-05T00:51:00.095Z,100779.28
2024-02-05T00:52:02.138Z,100783.16
2024-02-05T00:53:04.201Z,100781.94
2024-02-05T00:54:06.179Z,100778.66
2024-02-05T00:55:08.356Z,100784.97
2024-02-05T00:56:10.340Z,100780.91
2024-02-05T00:57:12.323Z,100773.16
2024-02-05T00:58:14.727Z,100766.84
2024-02-05T00:59:16.725Z,100764.28
2024-02-05T01:00:19.203Z,100768.53
2024-02-05T01:01:21.318Z,100774.50
2024-02-05T01:02:24.435Z,100783.38
2024-02-05T01:03:26.412Z,100776.50
2024-02-05T01:04:31.980Z,100773.38
2024-02-05T01:05:34.429Z,100785.19
2024-02-05T01:06:36.766Z,100782.44
2024-02-05T01:07:39.105Z,100782.94
2024-02-05T01:08:41.167Z,100791.16
2024-02-05T01:09:43.189Z,100787.75
2024-02-05T01:10:45.153Z,100796.44
2024-02-05T01:11:47.153Z,100783.78
2024-02-05T01:12:52.157Z,100778.84
2024-02-05T01:13:54.192Z,100771.88
2024-02-05T01:14:56.139Z,100766.75
2024-02-05T01:15:58.262Z,100776.78
2024-02-05T01:17:00.648Z,100773.47
2024-02-05T01:18:04.323Z,100767.81
2024-02-05T01:19:06.498Z,100755.81
2024-02-05T01:20:12.268Z,100755.44
2024-02-05T01:21:14.784Z,100748.25
2024-02-05T01:22:16.859Z,100755.63
2024-02-05T01:23:19.443Z,100753.06
2024-02-05T01:24:21.457Z,100752.22
2024-02-05T01:25:23.578Z,100755.81
2024-02-05T01:26:25.711Z,100757.31
2024-02-05T01:27:27.675Z,100751.19
2024-02-05T01:28:29.677Z,100753.53
2024-02-05T01:29:31.652Z,100759.03
2024-02-05T01:30:33.758Z,100766.41
2024-02-05T01:31:36.091Z,100760.53
2024-02-05T01:32:38.914Z,100763.47
2024-02-05T01:33:42.513Z,100760.91
2024-02-05T01:34:44.734Z,100764.50
2024-02-05T01:35:46.783Z,100758.28
2024-02-05T01:36:48.822Z,100749.75
2024-02-05T01:37:50.874Z,100746.75
2024-02-05T01:38:52.855Z,100742.28
2024-02-05T01:39:54.870Z,100744.84
2024-02-05T01:40:56.933Z,100749.09
2024-02-05T01:41:59.736Z,100748.91
2024-02-05T01:43:02.268Z,100735.22
2024-02-05T01:44:04.307Z,100740.31
2024-02-05T01:45:06.904Z,100728.50
2024-02-05T01:46:09.007Z,100732.47
2024-02-05T01:47:11.382Z,100734.56
2024-02-05T01:48:13.513Z,100740.22
2024-02-05T01:49:15.857Z,100752.59
2024-02-05T01:50:18.008Z,100770.94
2024-02-05T01:51:19.997Z,100771.66
2024-02-05T01:52:22.672Z,100763.63
2024-02-05T01:53:24.851Z,100740.97
2024-02-05T01:54:26.808Z,100743.41
2024-02-05T01:55:28.819Z,100746.63
2024-02-05T01:56:32.063Z,100731.03
2024-02-05T01:57:34.257Z,100718.38
2024-02-05T01:58:36.213Z,100712.72
2024-02-05T01:59:38.816Z,100708.09
2024-02-05T02:00:40.966Z,100713.09
2024-02-05T02:01:43.196Z,100712.44
2024-02-05T02:02:45.248Z,100717.06
2024-02-05T02:03:47.259Z,100716.19
2024-02-05T02:04:49.421Z,100713.84
2024-02-05T02:05:51.465Z,100708.75
2024-02-05T02:06:53.477Z,100711.66
2024-02-05T02:07:58.280Z,100715.06
2024-02-05T02:09:03.412Z,100721.88
2024-02-05T02:10:05.907Z,100703.91
2024-02-05T02:11:08.338Z,100679.53
2024-02-05T02:12:10.280Z,100665.38
2024-02-05T02:13:14.411Z,100667.19
2024-02-05T02:14:17.440Z,100682.56
2024-02-05T02:15:19.687Z,100681.16
2024-02-05T02:16:26.312Z,100680.41
2024-02-05T02:17:29.812Z,100674.47
2024-02-05T02:18:31.911Z,100674.66
2024-02-05T02:19:38.279Z,100673.22
2024-02-05T02:20:47.277Z,100662.09
2024-02-05T02:21:52.729Z,100673.50
2024-02-05T02:23:03.444Z,100645.38
2024-02-05T02:24:08.287Z,100631.94
2024-02-05T02:25:11.256Z,100640.16
2024-02-05T02:26:13.294Z,100649.72
2024-02-05T02:27:15.284Z,100642.16
2024-02-05T02:28:17.306Z,100626.94
2024-02-05T02:29:19.288Z,100631.00
2024-02-05T02:30:21.228Z,100638.84
2024-02-05T02:31:24.009Z,100646.41
2024-02-05T02:32:31.698Z,100640.25
2024-02-05T02:33:36.465Z,100644.69
2024-02-05T02:34:38.618Z,100657.34
2024-02-05T02:35:46.015Z,100646.50
2024-02-05T02:36:56.607Z,100650.47
2024-02-05T02:38:09.868Z,100659.34
2024-02-05T02:39:17.677Z,100642.16
2024-02-05T02:40:19.747Z,100640.25
2024-02-05T02:41:25.629Z,100623.19
2024-02-05T02:42:27.674Z,100619.69
2024-02-05T02:43:29.660Z,100630.72
2024-02-05T02:44:31.616Z,100634.97
2024-02-05T02:45:33.628Z,100655.47
2024-02-05T02:46:35.599Z,100668.41
2024-02-05T02:47:37.640Z,100669.44
2024-02-05T02:48:39.738Z,100664.44
2024-02-05T02:49:41.941Z,100672.47
2024-02-05T02:50:46.767Z,100656.88
2024-02-05T02:51:48.795Z,100670.41
2024-02-05T02:52:50.764Z,100654.81
2024-02-05T02:53:52.845Z,100650.19
2024-02-05T02:54:54.827Z,100646.03
2024-02-05T02:55:56.945Z,100647.06
2024-02-05T02:56:58.900Z,100637.34
2024-02-05T02:58:00.922Z,100641.19
2024-02-05T02:59:03.028Z,100644.59
2024-02-05T03:00:06.812Z,100641.00
2024-02-05T03:01:09.943Z,100636.19
2024-02-05T03:02:12.138Z,100632.88
2024-02-05T03:03:14.238Z,100623.63
2024-02-05T03:04:16.615Z,100619.00
2024-02-05T03:05:18.712Z,100610.09
2024-02-05T03:06:20.720Z,100615.31
2024-02-05T03:07:22.740Z,100604.16
2024-02-05T03:08:25.130Z,100610.75
2024-02-05T03:09:27.953Z,100621.72
2024-02-05T03:10:29.972Z,100619.38
2024-02-05T03:11:31.951Z,100604.06
2024-02-05T03:12:34.288Z,100606.22
2024-02-05T03:13:36.347Z,100595.91
2024-02-05T03:14:38.642Z,100603.75
2024-02-05T03:15:40.643Z,100603.75
2024-02-05T03:16:42.652Z,100611.19
2024-02-05T03:17:44.856Z,100615.38
2024-02-05T03:18:46.998Z,100613.94
2024-02-05T03:19:49.115Z,100623.28
2024-02-05T03:20:51.170Z,100624.13
2024-02-05T03:21:53.231Z,100641.03
2024-02-05T03:23:02.563Z,100634.97
2024-02-05T03:24:10.452Z,100629.97
2024-02-05T03:25:13.974Z,100634.41
2024-02-05T03:26:16.092Z,100638.56
2024-02-05T03:27:18.100Z,100643.59
2024-02-05T03:28:20.139Z,100644.91
2024-02-05T03:29:22.161Z,100628.66
2024-02-05T03:30:24.741Z,100617.59
2024-02-05T03:31:26.876Z,100616.09
2024-02-05T03:32:28.861Z,100608.06
2024-02-05T03:33:30.831Z,100604.69
2024-02-05T03:34:32.949Z,100611.41
2024-02-05T03:35:34.957Z,100611.41
2024-02-05T03:36:36.904Z,100625.69
2024-02-05T03:37:39.003Z,100616.78
2024-02-05T03:38:41.009Z,100617.25
2024-02-05T03:39:43.033Z,100629.34
2024-02-05T03:40:45.036Z,100626.13
2024-02-05T03:41:47.028Z,100619.63
2024-02-05T03:42:49.640Z,100618.19
2024-02-05T03:43:51.637Z,100626.41
2024-02-05T03:44:53.618Z,100618.19
2024-02-05T03:45:55.674Z,100626.41
2024-02-05T03:46:57.678Z,100631.13
2024-02-05T03:47:59.792Z,100625.63
2024-02-05T03:49:02.004Z,100634.06
2024-02-05T03:50:05.094Z,100637.84
2024-02-05T03:51:07.275Z,100617.41
2024-02-05T03:52:09.303Z,100632.44
2024-02-05T03:53:11.296Z,100630.09
2024-02-05T03:54:13.291Z,100627.53
2024-02-05T03:55:15.820Z,100642.09
2024-02-05T03:56:19.430Z,100625.84
2024-02-05T03:57:21.379Z,100624.78
2024-02-05T03:58:23.458Z,100638.69
2024-02-05T03:59:25.439Z,100631.03
2024-02-05T04:00:27.899Z,100637.75
2024-02-05T04:01:31.436Z,100645.78
2024-02-05T04:02:33.650Z,100634.63
2024-02-05T04:03:35.679Z,100631.91
2024-02-05T04:04:38.560Z,100619.41
2024-02-05T04:05:40.631Z,100625.28
2024-02-05T04:06:42.753Z,100619.41
2024-02-05T04:07:44.870Z,100605.34
2024-02-05T04:08:46.875Z,100605.13
2024-02-05T04:09:50.315Z,100603.81
2024-02-05T04:10:57.553Z,100595.59
2024-02-05T04:11:59.511Z,100591.44
2024-02-05T04:13:01.566Z,100596.25
2024-02-05T04:14:03.569Z,100598.72
2024-02-05T04:15:05.989Z,100575.09
2024-02-05T04:16:14.251Z,100557.34
2024-02-05T04:17:17.915Z,100557.44
2024-02-05T04:18:19.885Z,100549.00
2024-02-05T04:19:21.897Z,100552.47
2024-02-05T04:20:23.954Z,100556.97
2024-02-05T04:21:25.939Z,100549.59
2024-02-05T04:22:27.984Z,100540.13
2024-02-05T04:23:29.991Z,100547.13
2024-02-05T04:24:32.059Z,100556.41
2024-02-05T04:25:34.124Z,100546.88
2024-02-05T04:26:38.817Z,100548.56
2024-02-05T04:27:40.876Z,100549.59
2024-02-05T04:28:42.989Z,100550.06
2024-02-05T04:29:45.797Z,100563.13
2024-02-05T04:30:51.594Z,100554.31
2024-02-05T04:31:53.639Z,100546.47
2024-02-05T04:32:56.994Z,100543.66
2024-02-05T04:33:59.090Z,100539.50
2024-02-05T04:35:01.422Z,100538.31
2024-02-05T04:36:03.695Z,100538.13
2024-02-05T04:37:05.955Z,100538.38
2024-02-05T04:38:08.017Z,100546.91
2024-02-05T04:39:12.956Z,100559.13
2024-02-05T04:40:15.376Z,100554.16
2024-02-05T04:41:17.478Z,100552.25
2024-02-05T04:42:19.474Z,100550.03
2024-02-05T04:43:21.644Z,100553.81
2024-02-05T04:44:23.601Z,100550.16
2024-02-05T04:45:25.577Z,100539.09
2024-02-05T04:46:27.960Z,100522.84
2024-02-05T04:47:29.982Z,100525.03
2024-02-05T04:48:32.409Z,100536.25
2024-02-05T04:49:34.559Z,100555.72
2024-02-05T04:50:36.635Z,100564.81
2024-02-05T04:51:38.691Z,100551.94
2024-02-05T04:52:40.697Z,100538.69
2024-02-05T04:53:42.736Z,100537.69
2024-02-05T04:54:47.281Z,100539.75
2024-02-05T04:55:49.290Z,100545.44
2024-02-05T04:56:51.274Z,100545.28
2024-02-05T04:57:53.313Z,100549.94
2024-02-05T04:58:55.336Z,100546.78
2024-02-05T04:59:57.323Z,100544.69
2024-02-05T05:00:59.454Z,100547.03
2024-02-05T05:02:01.684Z,100544.94
2024-02-05T05:03:04.224Z,100546.25
2024-02-05T05:04:06.241Z,100554.31
2024-02-05T05:05:11.080Z,100556.28
2024-02-05T05:06:13.149Z,100560.31
2024-02-05T05:07:15.719Z,100547.63
2024-02-05T05:08:17.712Z,100549.34
2024-02-05T05:09:19.658Z,100558.22
2024-02-05T05:10:24.380Z,100556.31
2024-02-05T05:11:26.423Z,100564.78
2024-02-05T05:12:28.785Z,100560.56
2024-02-05T05:13:30.777Z,100564.81
2024-02-05T05:14:32.757Z,100566.06
2024-02-05T05:15:37.625Z,100571.56
2024-02-05T05:16:40.144Z,100573.03
2024-02-05T05:17:46.009Z,100566.91
2024-02-05T05:18:48.339Z,100568.13
2024-02-05T05:19:50.686Z,100572.34
2024-02-05T05:20:52.712Z,100586.53
2024-02-05T05:21:56.070Z,100573.16
2024-02-05T05:22:58.061Z,100565.31
2024-02-05T05:24:00.044Z,100566.78
2024-02-05T05:25:02.105Z,100572.28
2024-02-05T05:26:04.091Z,100569.75
2024-02-05T05:27:06.850Z,100551.97
2024-02-05T05:28:09.269Z,100562.09
2024-02-05T05:29:13.257Z,100569.88
2024-02-05T05:30:16.382Z,100573.91
2024-02-05T05:31:18.655Z,100580.25
2024-02-05T05:32:20.651Z,100581.28
2024-02-05T05:33:22.659Z,100577.91
2024-02-05T05:34:25.412Z,100567.97
2024-02-05T05:35:27.443Z,100557.78
2024-02-05T05:36:29.402Z,100556.28
2024-02-05T05:37:31.705Z,100566.22
2024-02-05T05:38:33.746Z,100568.53
2024-02-05T05:39:36.539Z,100560.66
2024-02-05T05:40:38.551Z,100557.50
2024-02-05T05:41:40.547Z,100563.22
2024-02-05T05:42:42.586Z,100561.31
2024-02-05T05:43:44.685Z,100560.91
2024-02-05T05:44:46.703Z,100559.44
2024-02-05T05:45:49.071Z,100559.00
2024-02-05T05:46:51.055Z,100554.97
2024-02-05T05:47:53.132Z,100570.00
2024-02-05T05:48:58.052Z,100576.75
2024-02-05T05:50:00.310Z,100579.88
2024-02-05T05:51:02.434Z,100581.94
2024-02-05T05:52:04.912Z,100582.34
2024-02-05T05:53:06.911Z,100580.25
2024-02-05T05:54:11.659Z,100586.78
2024-02-05T05:55:13.626Z,100593.56
2024-02-05T05:56:16.696Z,100594.19
2024-02-05T05:57:18.727Z,100597.13
2024-02-05T05:58:20.954Z,100612.56
2024-02-05T05:59:23.093Z,100609.16
2024-02-05T06:00:25.188Z,100608.56
2024-02-05T06:01:30.246Z,100605.16
2024-02-05T06:02:32.436Z,100602.22
2024-02-05T06:03:34.464Z,100613.22
2024-02-05T06:04:37.494Z,100623.34
2024-02-05T06:05:39.664Z,100623.75
2024-02-05T06:06:41.859Z,100618.06
2024-02-05T06:07:46.152Z,100614.25
2024-02-05T06:08:48.194Z,100618.06
2024-02-05T06:09:50.208Z,100620.41
2024-02-05T06:10:52.854Z,100621.66
2024-02-05T06:11:54.910Z,100625.69
2024-02-05T06:12:56.931Z,100632.22
2024-02-05T06:13:59.091Z,100614.69
2024-02-05T06:15:01.093Z,100613.91
2024-02-05T06:16:03.170Z,100615.19
2024-02-05T06:17:05.478Z,100623.63
2024-02-05T06:18:08.040Z,100626.81
2024-02-05T06:19:10.140Z,100621.09
2024-02-05T06:20:15.485Z,100623.25
2024-02-05T06:21:19.817Z,100638.06
2024-02-05T06:22:21.885Z,100637.81
2024-02-05T06:23:24.065Z,100642.06
2024-02-05T06:24:26.061Z,100660.00
2024-02-05T06:25:28.226Z,100670.34
2024-02-05T06:26:30.254Z,100670.13
2024-02-05T06:27:32.224Z,100679.41
2024-02-05T06:28:34.316Z,100677.28
2024-02-05T06:29:37.391Z,100679.75
2024-02-05T06:30:44.224Z,100677.88
2024-02-05T06:31:46.305Z,100697.69
2024-02-05T06:32:48.334Z,100698.75
2024-02-05T06:33:50.413Z,100689.75
2024-02-05T06:34:52.594Z,100680.03
2024-02-05T06:35:54.561Z,100670.72
2024-02-05T06:36:56.557Z,100674.13
2024-02-05T06:37:58.531Z,100673.09
2024-02-05T06:39:01.449Z,100666.28
2024-02-05T06:40:03.982Z,100679.81
2024-02-05T06:41:09.018Z,100685.13
2024-02-05T06:42:11.034Z,100687.41
2024-02-05T06:43:13.565Z,100706.22
2024-02-05T06:44:18.384Z,100701.34
2024-02-05T06:45:22.577Z,100695.19
2024-02-05T06:46:24.780Z,100708.72
2024-02-05T06:47:27.489Z,100726.31
2024-02-05T06:48:29.571Z,100739.56
2024-02-05T06:49:31.679Z,100735.31
2024-02-05T06:50:33.726Z,100739.78
2024-02-05T06:51:35.961Z,100750.09
2024-02-05T06:52:38.251Z,100755.78
2024-02-05T06:53:40.336Z,100767.34
2024-02-05T06:54:42.578Z,100768.41
2024-02-05T06:55:44.921Z,100755.53
2024-02-05T06:56:50.397Z,100758.94
2024-02-05T06:57:55.167Z,100753.25
2024-02-05T06:58:59.015Z,100744.75
2024-02-05T07:00:01.744Z,100736.03
2024-02-05T07:01:04.470Z,100734.81
2024-02-05T07:02:10.467Z,100759.31
2024-02-05T07:03:14.058Z,100778.25
2024-02-05T07:04:17.427Z,100780.44
2024-02-05T07:05:21.852Z,100792.06
2024-02-05T07:06:24.983Z,100774.34
2024-02-05T07:07:29.178Z,100745.47
2024-02-05T07:08:31.418Z,100736.84
2024-02-05T07:09:34.219Z,100732.00
2024-02-05T07:10:36.669Z,100739.19
2024-02-05T07:11:39.189Z,100730.28
2024-02-05T07:12:41.538Z,100741.94
2024-02-05T07:13:43.598Z,100754.41
2024-02-05T07:14:45.750Z,100755.00
2024-02-05T07:15:47.793Z,100751.22
2024-02-05T07:16:49.930Z,100737.47
2024-02-05T07:17:52.070Z,100739.84
2024-02-05T07:18:54.669Z,100734.53
2024-02-05T07:19:59.706Z,100752.25
2024-02-05T07:21:06.380Z,100758.22
2024-02-05T07:22:14.642Z,100752.31
2024-02-05T07:23:16.766Z,100747.03
2024-02-05T07:24:19.024Z,100742.69
2024-02-05T07:25:22.041Z,100743.34
2024-02-05T07:26:24.116Z,100755.22
2024-02-05T07:27:29.729Z,100755.28
2024-02-05T07:28:33.786Z,100747.03
2024-02-05T07:29:35.875Z,100748.13
2024-02-05T07:30:37.933Z,100753.22
2024-02-05T07:31:39.990Z,100745.56
2024-02-05T07:32:42.638Z,100749.16
2024-02-05T07:33:44.776Z,100754.03
2024-02-05T07:34:49.806Z,100753.63
2024-02-05T07:35:51.883Z,100753.41
2024-02-05T07:36:53.986Z,100757.72
2024-02-05T07:37:56.037Z,100754.31
2024-02-05T07:38:58.140Z,100757.53
2024-02-05T07:40:00.530Z,100764.75
2024-02-05T07:41:08.377Z,100762.72
2024-02-05T07:42:11.110Z,100768.75
2024-02-05T07:43:13.522Z,100759.34
2024-02-05T07:44:15.699Z,100756.47
2024-02-05T07:45:17.882Z,100771.78
2024-02-05T07:46:21.735Z,100773.94
2024-02-05T07:47:24.232Z,100778.59
2024-02-05T07:48:28.960Z,100779.06
2024-02-05T07:49:31.182Z,100787.56
2024-02-05T07:50:33.243Z,100785.66
2024-02-05T07:51:35.324Z,100778.47
2024-02-05T07:52:37.383Z,100775.56
2024-02-05T07:53:42.258Z,100770.81
2024-02-05T07:54:44.715Z,100779.78
2024-02-05T07:55:46.731Z,100774.47
2024-02-05T07:56:48.983Z,100779.78
2024-02-05T07:57:51.567Z,100786.50
2024-02-05T07:58:53.762Z,100789.75
2024-02-05T07:59:56.954Z,100779.06
2024-02-05T08:00:59.276Z,100777.56
2024-02-05T08:02:01.741Z,100780.28
2024-02-05T08:03:04.725Z,100775.66
2024-02-05T08:04:07.098Z,100779.22
2024-02-05T08:05:09.547Z,100775.97
2024-02-05T08:06:19.391Z,100770.88
2024-02-05T08:07:21.541Z,100771.66
2024-02-05T08:08:24.145Z,100769.13
2024-02-05T08:09:28.101Z,100770.66
2024-02-05T08:10:30.196Z,100774.34
2024-02-05T08:11:32.560Z,100776.75
2024-02-05T08:12:34.735Z,100774.16
2024-02-05T08:13:37.040Z,100774.69
2024-02-05T08:14:39.676Z,100768.50
2024-02-05T08:15:47.500Z,100770.88
2024-02-05T08:16:49.595Z,100783.84
2024-02-05T08:17:51.766Z,100787.81
2024-02-05T08:18:54.042Z,100788.09
2024-02-05T08:19:56.317Z,100782.66
2024-02-05T08:20:58.465Z,100783.50
2024-02-05T08:22:02.250Z,100781.53
2024-02-05T08:23:04.313Z,100776.88
2024-02-05T08:24:06.523Z,100776.44
2024-02-05T08:25:09.217Z,100781.09
2024-02-05T08:26:13.185Z,100779.84
2024-02-05T08:27:15.534Z,100775.44
2024-02-05T08:28:17.581Z,100775.63
2024-02-05T08:29:23.202Z,100782.34
2024-02-05T08:30:25.230Z,100795.75
2024-02-05T08:31:27.579Z,100798.63
2024-02-05T08:32:29.985Z,100793.66
2024-02-05T08:33:33.188Z,100789.16
2024-02-05T08:34:35.634Z,100792.38
2024-02-05T08:35:37.916Z,100782.31
2024-02-05T08:36:40.149Z,100780.69
2024-02-05T08:37:42.231Z,100775.88
2024-02-05T08:38:44.544Z,100780.59
2024-02-05T08:39:46.739Z,100777.28
2024-02-05T08:40:48.876Z,100782.53
2024-02-05T08:41:50.943Z,100793.84
2024-02-05T08:42:52.984Z,100792.00
2024-02-05T08:43:55.137Z,100781.03
2024-02-05T08:44:59.043Z,100796.56
2024-02-05T08:46:05.456Z,100783.00
2024-02-05T08:47:10.185Z,100777.72
2024-02-05T08:48:12.582Z,100764.94
2024-02-05T08:49:14.870Z,100778.56
2024-02-05T08:50:17.098Z,100778.38
2024-02-05T08:51:19.836Z,100780.50
2024-02-05T08:52:24.290Z,100781.81
2024-02-05T08:53:26.471Z,100783.25
2024-02-05T08:54:28.844Z,100780.03
2024-02-05T08:55:30.935Z,100789.63
2024-02-05T08:56:34.154Z,100782.13
2024-02-05T08:57:36.225Z,100783.78
2024-02-05T08:58:47.044Z,100787.56
2024-02-05T08:59:52.182Z,100792.63
2024-02-05T09:00:57.067Z,100782.38
2024-02-05T09:01:59.260Z,100787.19
2024-02-05T09:03:06.205Z,100786.25
2024-02-05T09:04:10.096Z,100793.53
2024-02-05T09:05:12.171Z,100792.41
2024-02-05T09:06:14.314Z,100801.34
2024-02-05T09:07:16.605Z,100799.19
2024-02-05T09:08:19.434Z,100790.00
2024-02-05T09:09:21.476Z,100788.19
2024-02-05T09:10:24.413Z,100779.22
2024-02-05T09:11:34.808Z,100781.47
2024-02-05T09:12:38.582Z,100797.56
2024-02-05T09:13:40.711Z,100800.34
2024-02-05T09:14:42.735Z,100804.97
2024-02-05T09:15:45.164Z,100808.44
2024-02-05T09:16:47.399Z,100797.88
2024-02-05T09:17:50.227Z,100788.25
2024-02-05T09:18:52.437Z,100789.78
2024-02-05T09:19:54.589Z,100797.06
2024-02-05T09:20:56.730Z,100802.28
2024-02-05T09:21:59.050Z,100809.63
2024-02-05T09:23:01.361Z,100799.41
2024-02-05T09:24:03.481Z,100802.38
2024-02-05T09:25:07.249Z,100809.03
2024-02-05T09:26:09.433Z,100809.53
2024-02-05T09:27:12.266Z,100814.38
2024-02-05T09:28:14.944Z,100811.09
2024-02-05T09:29:17.173Z,100807.78
2024-02-05T09:30:21.845Z,100820.66
2024-02-05T09:31:23.881Z,100811.34
2024-02-05T09:32:26.000Z,100809.56
2024-02-05T09:33:28.001Z,100808.31
2024-02-05T09:34:30.108Z,100807.28
2024-02-05T09:35:32.319Z,100804.31
2024-02-05T09:36:37.030Z,100800.22
2024-02-05T09:37:39.083Z,100805.19
2024-02-05T09:38:41.117Z,100804.97
2024-02-05T09:39:43.191Z,100804.97
2024-02-05T09:40:45.367Z,100808.81
2024-02-05T09:41:47.414Z,100811.69
2024-02-05T09:42:51.124Z,100807.03
2024-02-05T09:43:53.203Z,100808.28
2024-02-05T09:44:55.885Z,100811.66
2024-02-05T09:46:03.070Z,100807.38
2024-02-05T09:47:05.278Z,100815.72
2024-02-05T09:48:08.613Z,100804.78
2024-02-05T09:49:12.061Z,100811.19
2024-02-05T09:50:16.118Z,100817.75
2024-02-05T09:51:18.344Z,100817.69
2024-02-05T09:52:20.779Z,100812.41
2024-02-05T09:53:22.870Z,100804.34
2024-02-05T09:54:24.979Z,100794.06
2024-02-05T09:55:29.189Z,100801.44
2024-02-05T09:56:34.645Z,100800.47
2024-02-05T09:57:41.110Z,100794.94
2024-02-05T09:58:43.175Z,100801.34
2024-02-05T09:59:48.209Z,100787.81
2024-02-05T10:00:50.749Z,100789.75
2024-02-05T10:01:52.801Z,100792.41
2024-02-05T10:02:55.260Z,100787.09
2024-02-05T10:03:57.842Z,100786.00
2024-02-05T10:05:00.558Z,100781.88
2024-02-05T10:06:05.471Z,100791.31
2024-02-05T10:07:17.396Z,100778.09
2024-02-05T10:08:19.618Z,100788.59
2024-02-05T10:09:22.443Z,100782.66
2024-02-05T10:10:24.486Z,100785.53
2024-02-05T10:11:26.940Z,100788.56
2024-02-05T10:12:28.984Z,100789.97
2024-02-05T10:13:31.132Z,100780.31
2024-02-05T10:14:33.590Z,100784.25
2024-02-05T10:15:35.543Z,100784.59
2024-02-05T10:16:38.889Z,100777.69
2024-02-05T10:17:40.878Z,100770.97
2024-02-05T10:18:42.980Z,100780.44
2024-02-05T10:19:47.224Z,100772.84
2024-02-05T10:20:49.343Z,100778.00
2024-02-05T10:21:51.589Z,100793.00
2024-02-05T10:22:53.618Z,100785.53
2024-02-05T10:23:55.923Z,100786.59
2024-02-05T10:25:01.090Z,100790.88
2024-02-05T10:26:03.438Z,100791.88
2024-02-05T10:27:05.497Z,100788.91
2024-02-05T10:28:08.338Z,100789.75
2024-02-05T10:29:14.188Z,100783.00
2024-02-05T10:30:19.297Z,100782.69
2024-02-05T10:31:24.574Z,100783.16
2024-02-05T10:32:26.705Z,100778.59
2024-02-05T10:33:28.781Z,100775.56
2024-02-05T10:34:31.077Z,100775.56
2024-02-05T10:35:33.083Z,100767.19
2024-02-05T10:36:35.033Z,100770.25
2024-02-05T10:37:37.285Z,100767.44
2024-02-05T10:38:39.426Z,100753.66
2024-02-05T10:39:41.577Z,100764.38
2024-02-05T10:40:43.812Z,100758.19
2024-02-05T10:41:45.785Z,100760.63
2024-02-05T10:42:47.805Z,100766.34
2024-02-05T10:43:52.671Z,100756.41
2024-02-05T10:44:54.713Z,100759.56
2024-02-05T10:45:59.649Z,100764.66
2024-02-05T10:47:02.586Z,100762.88
2024-02-05T10:48:05.617Z,100756.66
2024-02-05T10:49:09.295Z,100767.91
2024-02-05T10:50:15.515Z,100759.69
2024-02-05T10:51:17.814Z,100764.03
2024-02-05T10:52:20.009Z,100756.69
2024-02-05T10:53:24.232Z,100757.88
2024-02-05T10:54:26.754Z,100756.56
2024-02-05T10:55:28.877Z,100745.69
2024-02-05T10:56:31.961Z,100743.53
2024-02-05T10:57:39.047Z,100741.94
2024-02-05T10:58:43.227Z,100745.09
2024-02-05T10:59:45.204Z,100740.88
2024-02-05T11:00:47.365Z,100743.75
2024-02-05T11:01:50.045Z,100755.84
2024-02-05T11:02:55.780Z,100754.13
2024-02-05T11:03:59.193Z,100757.66
2024-02-05T11:05:04.091Z,100751.25
2024-02-05T11:06:07.071Z,100754.97
2024-02-05T11:07:09.786Z,100756.19
2024-02-05T11:08:27.471Z,100755.94
2024-02-05T11:09:30.017Z,100761.41
2024-02-05T11:10:33.625Z,100762.25
2024-02-05T11:11:37.548Z,100763.78
2024-02-05T11:12:39.892Z,100755.44
2024-02-05T11:13:53.390Z,100758.69
2024-02-05T11:14:56.580Z,100757.13
2024-02-05T11:16:02.853Z,100750.22
2024-02-05T11:17:05.788Z,100758.88
2024-02-05T11:18:15.391Z,100752.81
2024-02-05T11:19:18.653Z,100750.38
2024-02-05T11:20:20.737Z,100743.84
2024-02-05T11:21:27.142Z,100743.94
2024-02-05T11:22:29.197Z,100754.16
2024-02-05T11:23:32.182Z,100749.00
2024-02-05T11:24:34.906Z,100754.31
2024-02-05T11:25:37.075Z,100752.09
2024-02-05T11:26:39.801Z,100764.47
2024-02-05T11:27:43.547Z,100761.72
2024-02-05T11:28:50.600Z,100754.88
2024-02-05T11:29:52.923Z,100760.03
2024-02-05T11:31:03.111Z,100761.81
2024-02-05T11:32:06.046Z,100751.50
2024-02-05T11:33:08.104Z,100757.88
2024-02-05T11:34:10.204Z,100760.41
2024-02-05T11:35:14.200Z,100763.72
2024-02-05T11:36:16.326Z,100764.31
2024-02-05T11:37:18.838Z,100756.38
2024-02-05T11:38:21.874Z,100757.69
2024-02-05T11:39:24.910Z,100752.06
2024-02-05T11:40:28.095Z,100756.91
2024-02-05T11:41:31.489Z,100757.66
2024-02-05T11:42:34.544Z,100756.19
2024-02-05T11:43:36.642Z,100756.56
2024-02-05T11:44:38.645Z,100756.09
2024-02-05T11:45:40.638Z,100756.94
2024-02-05T11:46:43.788Z,100753.34
2024-02-05T11:47:45.878Z,100749.94
2024-02-05T11:48:48.426Z,100745.63
2024-02-05T11:49:50.824Z,100751.41
2024-02-05T11:50:52.934Z,100754.56
2024-02-05T11:51:54.928Z,100757.22
2024-02-05T11:52:57.014Z,100752.88
2024-02-05T11:54:02.025Z,100752.25
2024-02-05T11:55:04.259Z,100758.66
2024-02-05T11:56:09.532Z,100757.44
2024-02-05T11:57:11.509Z,100753.91